Flight Track Log - Related Links

Times and Time Zones

All times are in EDT time to prevent confusion due to time zone crossing. See the SWA1834 flight status page for this flight to view local times or setup timezone preferences in your user account.

Time Position Orientation Groundspeed Altitude Reporting Facility
EDT Latitude Longitude Course Direction KTS MPH feet Rate Location/Type
Sat 08:01:15 PM 41.7833 -87.8333 251° West 191 220 3,900  Level Chicago TRACON
Sat 08:02:14 PM 41.7636 -87.9031 249° West 219 252 5,700 2,479 Climbing Chicago Center
Sat 08:03:16 PM 41.7625 -87.9967 269° West 251 289 8,900 2,244 Climbing Chicago Center
Sat 08:04:17 PM 41.7606 -88.0936 268° West 261 300 10,300 1,525 Climbing Chicago Center
Sat 08:05:18 PM 41.7600 -88.1925 270° West 266 306 12,000 2,361 Climbing Chicago Center
Sat 08:06:19 PM 41.7614 -88.3267 271° West 300 345 15,100 3,295 Climbing Chicago Center
Sat 08:07:20 PM 41.7614 -88.4450 270° West 319 367 18,700 2,902 Climbing Chicago Center
Sat 08:08:21 PM 41.7622 -88.5667 271° West 325 374 21,000 2,459 Climbing Chicago Center
Sat 08:09:22 PM 41.7611 -88.7053 269° West 361 415 23,700 2,557 Climbing Chicago Center
Sat 08:10:23 PM 41.7569 -88.8442 268° West 375 432 26,200 2,311 Climbing Chicago Center
Sat 08:11:24 PM 41.7447 -88.9853 263° West 382 440 28,400 2,016 Climbing Chicago Center
Sat 08:12:25 PM 41.7336 -89.1322 264° West 393 452 30,300 2,066 Climbing Chicago Center
Sat 08:13:26 PM 41.7228 -89.2783 264° West 399 459 32,600 2,213 Climbing Chicago Center
Sat 08:14:27 PM 41.7078 -89.4506 263° West 391 450 34,800 1,770 Climbing Chicago Center
Sat 08:15:28 PM 41.6972 -89.5872 264° West 393 452 36,200 1,525 Climbing Chicago Center
Sat 08:16:29 PM 41.6853 -89.7328 264° West 395 455 37,900 1,426 Climbing Chicago Center
Sat 08:17:30 PM 41.6736 -89.8753 264° West 390 449 39,100 1,033 Climbing Chicago Center
Sat 08:18:31 PM 41.6617 -90.0178 264° West 389 448 40,000 443 Climbing Chicago Center
Sat 08:19:32 PM 41.6489 -90.1617 263° West 391 450 40,000  Level Chicago Center
Sat 08:20:33 PM 41.6347 -90.3083 263° West 401 461 40,000  Level Chicago Center
Sat 08:21:34 PM 41.6217 -90.4494 263° West 390 449 40,000  Level Chicago Center
Sat 08:22:35 PM 41.6086 -90.5892 263° West 383 441 40,000  Level Chicago Center
Sat 08:23:36 PM 41.5944 -90.7447 263° West 381 438 40,000  Level Chicago Center
Sat 08:24:37 PM 41.5811 -90.8844 263° West 383 441 40,000  Level Chicago Center
Sat 08:25:38 PM 41.5681 -91.0222 263° West 378 435 40,000  Level Chicago Center
Sat 08:26:39 PM 41.5542 -91.1622 262° West 380 437 40,000  Level Chicago Center
Sat 08:27:40 PM 41.5408 -91.3025 263° West 383 441 40,000  Level Chicago Center
Sat 08:28:41 PM 41.5239 -91.4706 262° West 385 443 40,000  Level Chicago Center
Sat 08:29:42 PM 41.5100 -91.6100 262° West 382 440 40,000  Level Chicago Center
Sat 08:30:43 PM 41.4956 -91.7508 262° West 386 444 40,000  Level Chicago Center
Sat 08:31:44 PM 41.4814 -91.8897 262° West 383 441 40,000  Level Chicago Center
Sat 08:32:45 PM 41.4672 -92.0272 262° West 381 438 40,000  Level Chicago Center
Sat 08:33:46 PM 41.4519 -92.1681 262° West 383 441 40,000  Level Chicago Center
Sat 08:34:47 PM 41.4367 -92.3056 262° West 379 436 40,000  Level Chicago Center
Sat 08:35:48 PM 41.4200 -92.4597 262° West 383 441 40,000  Level Chicago Center
Sat 08:36:49 PM 41.4047 -92.5997 262° West 385 443 40,000  Level Chicago Center
Sat 08:37:23 PM 41.3961 -92.6842 262° West 384 442 40,000  Level Minneapolis Center
Sat 08:38:24 PM 41.3797 -92.8239 261° West 385 443 40,000  Level Minneapolis Center
Sat 08:39:25 PM 41.3636 -92.9619 261° West 384 442 40,000  Level Minneapolis Center
Sat 08:40:26 PM 41.3481 -93.0994 261° West 382 440 40,000  Level Minneapolis Center
Sat 08:41:28 PM 41.3319 -93.2375 261° West 381 438 40,000  Level Minneapolis Center
Sat 08:42:29 PM 41.3164 -93.3747 261° West 381 438 40,000  Level Minneapolis Center
Sat 08:43:30 PM 41.2969 -93.5386 261° West 379 436 40,000  Level Minneapolis Center
Sat 08:44:31 PM 41.2814 -93.6725 261° West 373 429 40,000  Level Minneapolis Center
Sat 08:45:33 PM 41.2656 -93.8094 261° West 376 433 40,000  Level Minneapolis Center
Sat 08:46:34 PM 41.2492 -93.9458 261° West 378 435 40,000  Level Minneapolis Center
Sat 08:47:35 PM 41.2325 -94.0828 261° West 379 436 40,000  Level Minneapolis Center
Sat 08:48:36 PM 41.2136 -94.2206 260° West 383 441 40,000  Level Minneapolis Center
Sat 08:49:38 PM 41.1933 -94.3875 261° West 382 440 40,000  Level Minneapolis Center
Sat 08:50:39 PM 41.1750 -94.5278 260° West 383 441 40,000  Level Minneapolis Center
Sat 08:51:40 PM 41.1583 -94.6703 261° West 389 448 40,000  Level Minneapolis Center
Sat 08:52:41 PM 41.1389 -94.8108 260° West 389 448 40,000  Level Minneapolis Center
Sat 08:53:42 PM 41.1194 -94.9517 260° West 389 448 40,000  Level Minneapolis Center
Sat 08:54:44 PM 41.1017 -95.0939 261° West 390 449 40,000  Level Minneapolis Center
Sat 08:55:45 PM 41.0819 -95.2353 260° West 390 449 40,000  Level Minneapolis Center
Sat 08:56:46 PM 41.0625 -95.3758 260° West 389 448 40,000  Level Minneapolis Center
Sat 08:57:47 PM 41.0422 -95.5172 259° West 388 447 40,000  Level Minneapolis Center
Sat 08:58:48 PM 41.0231 -95.6575 260° West 387 445 40,000  Level Minneapolis Center
Sat 08:59:54 PM 40.9994 -95.8250 259° West 384 442 40,000  Level Minneapolis Center
Sat 09:00:55 PM 40.9789 -95.9681 259° West 388 447 40,000  Level Minneapolis Center
Sat 09:01:56 PM 40.9606 -96.1089 260° West 389 448 40,000  Level Minneapolis Center
Sat 09:02:57 PM 40.9403 -96.2511 259° West 390 449 40,000  Level Minneapolis Center
Sat 09:03:58 PM 40.9183 -96.3933 259° West 391 450 40,000  Level Minneapolis Center
Sat 09:04:59 PM 40.8978 -96.5361 259° West 393 452 40,000  Level Minneapolis Center
Sat 09:06:00 PM 40.8772 -96.6781 259° West 393 452 40,000  Level Minneapolis Center
Sat 09:07:01 PM 40.8564 -96.8208 259° West 394 453 40,000  Level Minneapolis Center
Sat 09:08:03 PM 40.8350 -96.9642 259° West 396 456 40,000  Level Minneapolis Center
Sat 09:09:04 PM 40.8131 -97.1064 259° West 395 455 40,000  Level Minneapolis Center
Sat 09:10:05 PM 40.7908 -97.2500 258° West 398 458 40,000  Level Minneapolis Center
Sat 09:11:06 PM 40.7703 -97.3906 259° West 396 456 40,000  Level Minneapolis Center
Sat 09:12:07 PM 40.7475 -97.5342 258° West 397 457 40,000  Level Minneapolis Center
Sat 09:13:08 PM 40.7197 -97.7056 258° West 398 458 40,000  Level Minneapolis Center
Sat 09:14:09 PM 40.6978 -97.8483 259° West 398 458 40,000  Level Minneapolis Center
Sat 09:15:10 PM 40.6747 -97.9906 258° West 397 457 40,000  Level Minneapolis Center
Sat 09:16:11 PM 40.6522 -98.1350 258° West 398 458 40,000  Level Minneapolis Center
Sat 09:17:12 PM 40.6289 -98.2772 258° West 398 458 40,000  Level Minneapolis Center
Sat 09:18:13 PM 40.6069 -98.4203 259° West 397 457 40,000  Level Minneapolis Center
Sat 09:19:14 PM 40.6164 -98.5656 275° West 395 455 40,000  Level Minneapolis Center
Sat 09:20:15 PM 40.6292 -98.7111 277° West 397 457 40,000  Level Minneapolis Center
Sat 09:21:16 PM 40.6425 -98.8578 277° West 400 460 40,000  Level Minneapolis Center
Sat 09:22:17 PM 40.6558 -99.0036 277° West 399 459 40,000  Level Minneapolis Center
Sat 09:23:18 PM 40.6681 -99.1489 276° West 398 458 40,000  Level Minneapolis Center
Sat 09:24:19 PM 40.6800 -99.2953 276° West 398 458 40,000  Level Minneapolis Center
Sat 09:25:19 PM 40.6897 -99.4406 275° West 397 457 40,000  Level Minneapolis Center
Sat 09:26:20 PM 40.6808 -99.5833 265° West 391 450 40,000  Level Minneapolis Center
Sat 09:27:21 PM 40.6728 -99.7264 266° West 391 450 40,000  Level Minneapolis Center
Sat 09:28:22 PM 40.6650 -99.8697 266° West 391 450 40,000  Level Minneapolis Center
Sat 09:29:23 PM 40.6575 -100.0128 266° West 391 450 40,000  Level Minneapolis Center
Sat 09:30:24 PM 40.6483 -100.1547 265° West 390 449 40,000  Level Minneapolis Center
Sat 09:31:25 PM 40.6411 -100.2989 266° West 391 450 40,000  Level Minneapolis Center
Sat 09:32:26 PM 40.6331 -100.4411 266° West 391 450 40,000  Level Minneapolis Center
Sat 09:33:27 PM 40.6253 -100.5819 266° West 389 448 40,000  Level Minneapolis Center
Sat 09:34:56 PM 40.6075 -100.8067 264° West 389 448 40,000  Level Denver Center
Sat 09:35:57 PM 40.5981 -100.9431 265° West 387 445 40,000  Level Denver Center
Sat 09:36:58 PM 40.5883 -101.0994 265° West 382 440 40,000  Level Denver Center
Sat 09:37:59 PM 40.5789 -101.2336 265° West 383 441 40,000  Level Denver Center
Sat 09:39:00 PM 40.5700 -101.3664 265° West 382 440 40,000 -146 Level Denver Center
Sat 09:40:02 PM 40.5592 -101.5208 265° West 380 437 39,700 -585 Descending Denver Center
Sat 09:41:03 PM 40.5494 -101.6539 265° West 381 438 38,800 -934 Descending Denver Center
Sat 09:42:04 PM 40.5406 -101.7850 265° West 377 434 37,800 -984 Descending Denver Center
Sat 09:43:05 PM 40.5292 -101.9383 264° West 378 435 36,800 -934 Descending Denver Center
Sat 09:44:06 PM 40.5192 -102.0694 264° West 377 434 35,900 -984 Descending Denver Center
Sat 09:45:07 PM 40.5069 -102.2258 264° West 383 441 34,800 -984 Descending Denver Center
Sat 09:46:08 PM 40.4889 -102.3564 260° West 382 440 33,900 -885 Descending Denver Center
Sat 09:47:09 PM 40.4617 -102.4853 255° West 382 440 33,000 -976 Descending Denver Center
Sat 09:48:11 PM 40.4317 -102.6358 255° West 382 440 31,900 -976 Descending Denver Center
Sat 09:49:12 PM 40.4078 -102.7694 257° West 386 444 31,000 -934 Descending Denver Center
Sat 09:50:13 PM 40.3831 -102.9081 257° West 390 449 30,000 -984 Descending Denver Center
Sat 09:51:14 PM 40.3572 -103.0481 256° West 394 453 29,000 -1,082 Descending Denver Center
Sat 09:52:15 PM 40.3308 -103.1842 256° West 388 447 27,800 -1,082 Descending Denver Center
Sat 09:53:16 PM 40.3053 -103.3133 255° West 371 427 26,800 -984 Descending Denver Center
Sat 09:54:17 PM 40.2797 -103.4456 256° West 375 432 25,800 -1,328 Descending Denver Center
Sat 09:55:18 PM 40.2544 -103.5772 256° West 375 432 24,100 -2,262 Descending Denver Center
Sat 09:56:19 PM 40.2247 -103.7231 255° West 368 423 21,200 -2,508 Descending Denver Center
Sat 09:57:20 PM 40.2025 -103.8522 257° West 364 419 19,000 -1,672 Descending Denver Center
Sat 09:58:21 PM 40.2097 -103.9683 275° West 325 374 17,800 -1,574 Descending Denver Center
Sat 09:59:22 PM 40.2228 -104.0906 278° West 317 365 15,800 -1,967 Descending Denver Center
Sat 10:00:23 PM 40.2325 -104.2011 277° West 309 356 13,800 -2,164 Descending Denver Center
Sat 10:01:24 PM 40.1933 -104.3014 243° Southwest 317 365 11,400 -1,721 Descending Denver Center
Sat 10:02:25 PM 40.1433 -104.3922 234° Southwest 307 353 10,300 -1,180 Descending Denver Center
Sat 10:03:26 PM 40.0953 -104.4786 234° Southwest 275 316 9,000 -1,475 Descending Denver Center
Sat 10:04:27 PM 40.0531 -104.5542 234° Southwest 261 300 7,300 -1,290 Descending Denver Center
Sat 10:04:59 PM 40.0333 -104.6000 241° Southwest 255 293 7,000 -196 Descending Denver TRACON
Sat 10:05:59 PM 40.0000 -104.6500 229° Southwest 195 224 7,000 -67 Level Denver TRACON
Sat 10:06:29 PM 39.9831 -104.6783 232° Southwest 180 207 6,900 -462 Descending Denver Center
Sat 10:07:30 PM 39.9475 -104.6867 190° South 135 155 6,300 -639 Descending Denver Center
Sat 10:08:31 PM 39.9089 -104.6864 180° South 127 146 5,600 -443 Descending Denver Center
Sat 10:09:32 PM 39.8761 -104.6869 181° South 122 140 5,400 -197 Descending Denver Center
Sat 10:11:00 PM 39.8617 -104.6732 North  Level Estimated
Sat 10:18:00 PM 39.8617 -104.6732 North  Level Estimated
Sat 10:19:00 PM 39.8617 -104.6732 North  Level Estimated

Login

Don't have an account? Register now (free) for customized features, flight alerts, and more!